createdAt,value
2022-08-27T00:01:37.324Z,101376.38
2022-08-27T00:04:04.206Z,101384.28
2022-08-27T00:06:30.939Z,101379.22
2022-08-27T00:08:58.322Z,101378.78
2022-08-27T00:11:25.560Z,101382.88
2022-08-27T00:13:52.620Z,101369.13
2022-08-27T00:16:20.142Z,101382.66
2022-08-27T00:18:48.409Z,101372.75
2022-08-27T00:21:16.093Z,101378.00
2022-08-27T00:23:42.696Z,101378.59
2022-08-27T00:26:10.574Z,101372.34
2022-08-27T00:28:37.395Z,101369.13
2022-08-27T00:31:04.082Z,101370.56
2022-08-27T00:33:30.811Z,101371.97
2022-08-27T00:35:57.674Z,101365.09
2022-08-27T00:38:24.440Z,101366.09
2022-08-27T00:40:52.509Z,101358.44
2022-08-27T00:43:31.943Z,101369.34
2022-08-27T00:46:16.625Z,101367.34
2022-08-27T00:48:43.267Z,101362.09
2022-08-27T00:51:10.796Z,101369.38
2022-08-27T00:53:39.388Z,101369.38
2022-08-27T00:56:15.607Z,101366.97
2022-08-27T00:58:45.356Z,101369.00
2022-08-27T01:01:16.545Z,101368.19
2022-08-27T01:03:47.581Z,101370.41
2022-08-27T01:06:16.634Z,101372.44
2022-08-27T01:08:52.051Z,101366.00
2022-08-27T01:11:19.378Z,101369.03
2022-08-27T01:13:59.726Z,101366.41
2022-08-27T01:16:35.840Z,101361.34
2022-08-27T01:19:08.089Z,101364.19
2022-08-27T01:21:53.370Z,101371.88
2022-08-27T01:24:25.743Z,101363.56
2022-08-27T01:26:53.351Z,101364.59
2022-08-27T01:29:20.287Z,101372.09
2022-08-27T01:31:46.894Z,101364.59
2022-08-27T01:34:13.619Z,101370.69
2022-08-27T01:36:40.533Z,101369.03
2022-08-27T01:39:08.088Z,101369.25
2022-08-27T01:41:35.557Z,101363.41
2022-08-27T01:44:04.294Z,101362.00
2022-08-27T01:46:31.079Z,101365.44
2022-08-27T01:48:57.773Z,101362.00
2022-08-27T01:51:24.351Z,101360.38
2022-08-27T01:53:51.154Z,101363.44
2022-08-27T01:56:18.236Z,101367.88
2022-08-27T01:58:45.639Z,101360.16
2022-08-27T02:01:16.857Z,101354.91
2022-08-27T02:03:44.690Z,101364.44
2022-08-27T02:06:12.135Z,101369.31
2022-08-27T02:08:39.525Z,101358.59
2022-08-27T02:11:08.344Z,101364.03
2022-08-27T02:13:35.286Z,101364.84
2022-08-27T02:16:01.945Z,101365.66
2022-08-27T02:18:28.600Z,101363.25
2022-08-27T02:20:55.105Z,101360.78
2022-08-27T02:23:22.698Z,101361.81
2022-08-27T02:25:49.257Z,101362.63
2022-08-27T02:28:16.392Z,101358.97
2022-08-27T02:30:43.251Z,101360.78
2022-08-27T02:33:10.991Z,101357.34
2022-08-27T02:35:43.094Z,101357.56
2022-08-27T02:38:12.887Z,101361.22
2022-08-27T02:40:40.432Z,101352.72
2022-08-27T02:43:07.739Z,101353.13
2022-08-27T02:45:35.520Z,101356.38
2022-08-27T02:48:02.543Z,101355.72
2022-08-27T02:50:29.190Z,101360.00
2022-08-27T02:52:55.889Z,101354.53
2022-08-27T02:55:23.065Z,101348.91
2022-08-27T02:57:49.676Z,101351.31
2022-08-27T03:00:19.888Z,101353.50
2022-08-27T03:02:47.079Z,101342.81
2022-08-27T03:05:14.791Z,101356.16
2022-08-27T03:07:42.295Z,101354.34
2022-08-27T03:10:10.249Z,101342.19
2022-08-27T03:12:36.918Z,101345.84
2022-08-27T03:15:05.813Z,101342.00
2022-08-27T03:17:51.088Z,101340.78
2022-08-27T03:20:18.906Z,101342.41
2022-08-27T03:22:46.011Z,101340.38
2022-08-27T03:25:13.590Z,101347.03
2022-08-27T03:27:40.764Z,101339.16
2022-08-27T03:30:11.862Z,101342.97
2022-08-27T03:32:39.165Z,101338.09
2022-08-27T03:35:06.265Z,101340.34
2022-08-27T03:37:35.036Z,101341.75
2022-08-27T03:40:02.164Z,101341.53
2022-08-27T03:42:28.940Z,101350.41
2022-08-27T03:44:55.511Z,101351.59
2022-08-27T03:47:23.722Z,101348.31
2022-08-27T03:49:50.715Z,101350.34
2022-08-27T03:52:19.333Z,101357.59
2022-08-27T03:54:46.040Z,101355.56
2022-08-27T03:57:13.062Z,101355.34
2022-08-27T03:59:58.441Z,101361.19
2022-08-27T04:02:25.253Z,101353.69
2022-08-27T04:04:52.004Z,101367.59
2022-08-27T04:07:19.064Z,101361.28
2022-08-27T04:09:46.628Z,101359.25
2022-08-27T04:12:13.196Z,101364.28
2022-08-27T04:14:40.199Z,101370.91
2022-08-27T04:17:06.817Z,101373.31
2022-08-27T04:19:35.106Z,101374.28
2022-08-27T04:22:04.336Z,101375.03
2022-08-27T04:24:33.173Z,101377.03
2022-08-27T04:27:01.266Z,101380.84
2022-08-27T04:29:28.609Z,101370.56
2022-08-27T04:31:56.128Z,101371.38
2022-08-27T04:34:22.957Z,101374.16
2022-08-27T04:36:50.294Z,101373.19
2022-08-27T04:39:17.024Z,101377.44
2022-08-27T04:41:44.668Z,101376.78
2022-08-27T04:44:11.698Z,101370.75
2022-08-27T04:46:40.521Z,101374.16
2022-08-27T04:49:10.848Z,101375.00
2022-08-27T04:51:39.969Z,101379.66
2022-08-27T04:54:08.115Z,101376.88
2022-08-27T04:56:35.962Z,101373.66
2022-08-27T04:59:05.095Z,101381.94
2022-08-27T05:01:32.349Z,101382.50
2022-08-27T05:03:59.091Z,101383.31
2022-08-27T05:06:25.883Z,101383.13
2022-08-27T05:08:53.917Z,101379.94
2022-08-27T05:11:22.607Z,101383.00
2022-08-27T05:13:50.484Z,101384.81
2022-08-27T05:16:22.752Z,101375.97
2022-08-27T05:18:51.778Z,101390.91
2022-08-27T05:21:24.049Z,101385.91
2022-08-27T05:23:52.032Z,101385.56
2022-08-27T05:26:18.870Z,101381.94
2022-08-27T05:28:45.606Z,101380.75
2022-08-27T05:31:14.631Z,101384.06
2022-08-27T05:33:43.509Z,101379.09
2022-08-27T05:36:23.047Z,101372.69
2022-08-27T05:38:52.509Z,101383.41
2022-08-27T05:41:25.019Z,101381.19
2022-08-27T05:44:24.088Z,101371.06
2022-08-27T05:46:52.369Z,101379.34
2022-08-27T05:49:18.936Z,101384.56
2022-08-27T05:51:45.610Z,101388.59
2022-08-27T05:54:21.109Z,101385.94
2022-08-27T05:56:51.554Z,101381.28
2022-08-27T05:59:37.244Z,101385.53
2022-08-27T06:02:04.315Z,101386.25
2022-08-27T06:04:30.980Z,101381.81
2022-08-27T06:06:57.635Z,101380.44
2022-08-27T06:09:28.881Z,101382.31
2022-08-27T06:12:00.257Z,101381.97
2022-08-27T06:14:27.702Z,101388.06
2022-08-27T06:16:54.268Z,101382.34
2022-08-27T06:19:21.404Z,101386.16
2022-08-27T06:22:00.047Z,101385.31
2022-08-27T06:24:28.999Z,101388.19
2022-08-27T06:26:55.591Z,101385.47
2022-08-27T06:29:23.673Z,101391.59
2022-08-27T06:31:50.478Z,101387.25
2022-08-27T06:34:17.804Z,101386.59
2022-08-27T06:36:44.520Z,101393.03
2022-08-27T06:39:15.491Z,101387.75
2022-08-27T06:41:43.898Z,101389.56
2022-08-27T06:44:11.215Z,101390.56
2022-08-27T06:46:38.849Z,101392.97
2022-08-27T06:49:06.003Z,101394.47
2022-08-27T06:51:34.626Z,101400.53
2022-08-27T06:54:04.296Z,101398.31
2022-08-27T06:56:31.625Z,101396.63
2022-08-27T06:59:04.000Z,101402.00
2022-08-27T07:01:36.992Z,101398.34
2022-08-27T07:04:07.410Z,101402.63
2022-08-27T07:06:35.991Z,101394.59
2022-08-27T07:09:03.913Z,101397.75
2022-08-27T07:11:33.807Z,101388.47
2022-08-27T07:14:01.185Z,101399.03
2022-08-27T07:16:29.317Z,101407.00
2022-08-27T07:19:01.895Z,101400.06
2022-08-27T07:21:31.821Z,101402.06
2022-08-27T07:23:59.848Z,101412.53
2022-08-27T07:26:26.687Z,101401.81
2022-08-27T07:28:53.650Z,101402.00
2022-08-27T07:31:22.422Z,101408.00
2022-08-27T07:33:52.594Z,101405.28
2022-08-27T07:36:21.615Z,101408.75
2022-08-27T07:38:57.059Z,101407.69
2022-08-27T07:41:31.996Z,101402.44
2022-08-27T07:44:18.866Z,101405.00
2022-08-27T07:46:47.999Z,101407.09
2022-08-27T07:49:15.455Z,101406.56
2022-08-27T07:51:41.990Z,101403.91
2022-08-27T07:54:09.015Z,101402.56
2022-08-27T07:56:35.779Z,101402.53
2022-08-27T07:59:02.627Z,101403.16
2022-08-27T08:01:30.181Z,101416.56
2022-08-27T08:03:57.097Z,101407.03
2022-08-27T08:06:24.061Z,101410.13
2022-08-27T08:08:50.626Z,101418.06
2022-08-27T08:11:18.839Z,101412.09
2022-08-27T08:13:46.769Z,101414.63
2022-08-27T08:16:13.941Z,101420.03
2022-08-27T08:18:40.724Z,101422.34
2022-08-27T08:21:10.713Z,101428.53
2022-08-27T08:23:38.418Z,101419.09
2022-08-27T08:26:05.623Z,101432.66
2022-08-27T08:28:32.277Z,101432.00
2022-08-27T08:30:59.406Z,101436.38
2022-08-27T08:33:27.564Z,101425.44
2022-08-27T08:35:54.668Z,101431.31
2022-08-27T08:38:23.319Z,101427.38
2022-08-27T08:40:54.513Z,101430.03
2022-08-27T08:43:31.390Z,101427.25
2022-08-27T08:46:03.891Z,101434.28
2022-08-27T08:48:31.360Z,101426.34
2022-08-27T08:51:07.637Z,101422.91
2022-08-27T08:53:59.147Z,101427.16
2022-08-27T08:56:31.329Z,101430.69
2022-08-27T08:59:25.209Z,101434.13
2022-08-27T09:01:52.043Z,101428.38
2022-08-27T09:04:18.642Z,101429.44
2022-08-27T09:07:00.782Z,101434.47
2022-08-27T09:09:39.300Z,101429.84
2022-08-27T09:12:15.248Z,101427.66
2022-08-27T09:14:57.858Z,101432.34
2022-08-27T09:17:24.737Z,101435.59
2022-08-27T09:19:52.663Z,101435.13
2022-08-27T09:22:47.249Z,101436.09
2022-08-27T09:25:22.418Z,101441.63
2022-08-27T09:27:54.815Z,101443.81
2022-08-27T09:30:30.905Z,101444.91
2022-08-27T09:33:04.264Z,101438.22
2022-08-27T09:35:44.865Z,101443.75
2022-08-27T09:38:19.697Z,101441.00
2022-08-27T09:40:50.623Z,101433.75
2022-08-27T09:43:17.329Z,101440.41
2022-08-27T09:45:51.422Z,101436.72
2022-08-27T09:48:25.679Z,101443.28
2022-08-27T09:50:55.994Z,101437.66
2022-08-27T09:53:44.240Z,101439.03
2022-08-27T09:56:28.202Z,101434.66
2022-08-27T09:59:06.547Z,101437.41
2022-08-27T10:01:35.962Z,101435.44
2022-08-27T10:04:11.352Z,101430.13
2022-08-27T10:06:45.085Z,101432.75
2022-08-27T10:09:33.245Z,101435.41
2022-08-27T10:12:08.585Z,101437.56
2022-08-27T10:14:44.121Z,101429.63
2022-08-27T10:17:42.090Z,101435.84
2022-08-27T10:20:25.854Z,101443.72
2022-08-27T10:23:22.041Z,101436.72
2022-08-27T10:25:51.522Z,101433.72
2022-08-27T10:28:38.869Z,101429.50
2022-08-27T10:31:19.542Z,101424.00
2022-08-27T10:33:56.994Z,101427.03
2022-08-27T10:36:48.219Z,101423.59
2022-08-27T10:39:37.165Z,101417.66
2022-08-27T10:42:26.645Z,101410.47
2022-08-27T10:45:11.598Z,101427.63
2022-08-27T10:47:51.788Z,101430.22
2022-08-27T10:50:37.432Z,101422.44
2022-08-27T10:53:21.845Z,101432.84
2022-08-27T10:55:53.639Z,101434.63
2022-08-27T10:58:38.670Z,101434.19
2022-08-27T11:01:24.041Z,101440.22
2022-08-27T11:03:56.491Z,101439.75
2022-08-27T11:06:44.165Z,101433.81
2022-08-27T11:09:17.240Z,101434.38
2022-08-27T11:15:15.610Z,101435.00
2022-08-27T11:17:45.776Z,101437.81
2022-08-27T11:20:18.717Z,101435.16
2022-08-27T11:22:53.990Z,101424.63
2022-08-27T11:25:26.650Z,101428.31
2022-08-27T11:27:56.448Z,101429.56
2022-08-27T11:30:34.819Z,101427.63
2022-08-27T11:33:20.202Z,101424.97
2022-08-27T11:36:08.592Z,101423.13
2022-08-27T11:38:50.487Z,101426.81
2022-08-27T11:41:29.412Z,101421.41
2022-08-27T11:44:13.864Z,101425.13
2022-08-27T11:46:53.590Z,101427.78
2022-08-27T11:49:48.616Z,101424.47
2022-08-27T11:52:30.534Z,101425.03
2022-08-27T11:55:24.021Z,101418.38
2022-08-27T11:58:05.213Z,101424.72
2022-08-27T12:00:36.183Z,101428.50
2022-08-27T12:03:10.167Z,101430.25
2022-08-27T12:05:48.337Z,101425.75
2022-08-27T12:08:29.697Z,101426.13
2022-08-27T12:11:30.923Z,101429.72
2022-08-27T12:14:22.243Z,101419.53
2022-08-27T12:17:03.713Z,101420.53
2022-08-27T12:19:33.324Z,101422.91
2022-08-27T12:22:24.590Z,101423.72
2022-08-27T12:24:55.665Z,101424.41
2022-08-27T12:27:22.460Z,101420.13
2022-08-27T12:29:53.994Z,101428.88
2022-08-27T12:32:24.542Z,101428.34
2022-08-27T12:34:59.636Z,101424.81
2022-08-27T12:37:36.008Z,101422.50
2022-08-27T12:40:07.043Z,101421.38
2022-08-27T12:42:33.614Z,101419.44
2022-08-27T12:45:00.285Z,101424.66
2022-08-27T12:47:27.247Z,101423.16
2022-08-27T12:49:59.659Z,101420.13
2022-08-27T12:52:34.961Z,101410.97
2022-08-27T12:55:16.769Z,101420.31
2022-08-27T12:57:52.485Z,101414.91
2022-08-27T13:00:26.292Z,101408.34
2022-08-27T13:03:11.781Z,101403.56
2022-08-27T13:05:44.490Z,101403.34
2022-08-27T13:08:32.059Z,101399.72
2022-08-27T13:11:19.415Z,101396.72
2022-08-27T13:13:45.989Z,101402.91
2022-08-27T13:16:12.836Z,101399.75
2022-08-27T13:18:40.541Z,101403.75
2022-08-27T13:21:19.165Z,101407.59
2022-08-27T13:24:02.108Z,101411.53
2022-08-27T13:26:34.057Z,101411.31
2022-08-27T13:29:03.705Z,101403.03
2022-08-27T13:31:31.908Z,101399.81
2022-08-27T13:33:59.965Z,101404.09
2022-08-27T13:36:27.765Z,101402.78
2022-08-27T13:39:02.447Z,101406.63
2022-08-27T13:41:33.360Z,101394.91
2022-08-27T13:44:31.390Z,101401.97
2022-08-27T13:47:05.308Z,101399.47
2022-08-27T13:49:39.734Z,101398.72
2022-08-27T13:52:21.829Z,101403.22
2022-08-27T13:54:51.723Z,101400.66
2022-08-27T13:57:30.830Z,101394.53
2022-08-27T14:00:11.181Z,101397.75
2022-08-27T14:02:37.806Z,101392.91
2022-08-27T14:05:27.987Z,101394.72
2022-08-27T14:08:12.332Z,101393.97
2022-08-27T14:10:47.296Z,101389.38
2022-08-27T14:13:24.656Z,101390.16
2022-08-27T14:15:54.300Z,101384.66
2022-08-27T14:18:42.210Z,101389.69
2022-08-27T14:21:12.866Z,101387.97
2022-08-27T14:23:39.743Z,101387.63
2022-08-27T14:26:07.888Z,101384.09
2022-08-27T14:28:34.515Z,101388.28
2022-08-27T14:31:01.080Z,101387.03
2022-08-27T14:33:27.969Z,101387.13
2022-08-27T14:35:54.714Z,101391.72
2022-08-27T14:38:23.813Z,101393.38
2022-08-27T14:40:52.909Z,101393.13
2022-08-27T14:43:20.061Z,101388.53
2022-08-27T14:45:50.455Z,101393.69
2022-08-27T14:48:21.966Z,101389.69
2022-08-27T14:50:55.543Z,101393.25
2022-08-27T14:53:22.150Z,101387.59
2022-08-27T14:55:51.654Z,101394.81
2022-08-27T14:58:19.478Z,101388.22
2022-08-27T15:03:13.135Z,101399.69
2022-08-27T15:05:40.301Z,101411.66
2022-08-27T15:08:07.686Z,101406.81
2022-08-27T15:10:39.705Z,101408.25
2022-08-27T15:13:06.481Z,101402.63
2022-08-27T15:15:33.104Z,101402.13
2022-08-27T15:17:59.706Z,101410.72
2022-08-27T15:20:26.358Z,101408.16
2022-08-27T15:22:53.102Z,101414.13
2022-08-27T15:25:20.543Z,101408.81
2022-08-27T15:27:47.055Z,101414.13
2022-08-27T15:30:16.089Z,101413.56
2022-08-27T15:32:45.894Z,101406.47
2022-08-27T15:35:16.439Z,101415.97
2022-08-27T15:37:44.489Z,101418.38
2022-08-27T15:40:14.349Z,101420.94
2022-08-27T15:42:41.511Z,101418.75
2022-08-27T15:45:09.418Z,101416.91
2022-08-27T15:47:36.117Z,101421.19
2022-08-27T15:50:03.513Z,101423.03
2022-08-27T15:52:41.091Z,101418.84
2022-08-27T15:55:19.834Z,101420.00
2022-08-27T15:57:46.680Z,101414.19
2022-08-27T16:00:14.058Z,101410.25
2022-08-27T16:02:41.514Z,101414.75
2022-08-27T16:05:09.015Z,101415.38
2022-08-27T16:07:35.963Z,101412.56
2022-08-27T16:10:08.874Z,101411.91
2022-08-27T16:12:35.963Z,101407.63
2022-08-27T16:15:04.182Z,101412.06
2022-08-27T16:17:30.928Z,101408.59
2022-08-27T16:19:57.951Z,101412.22
2022-08-27T16:22:24.623Z,101406.31
2022-08-27T16:24:51.196Z,101408.84
2022-08-27T16:27:17.932Z,101412.91
2022-08-27T16:29:44.644Z,101412.47
2022-08-27T16:32:16.821Z,101406.16
2022-08-27T16:34:47.575Z,101411.69
2022-08-27T16:37:22.674Z,101410.63
2022-08-27T16:39:49.404Z,101412.47
2022-08-27T16:42:16.056Z,101414.00
2022-08-27T16:44:42.840Z,101413.19
2022-08-27T16:47:09.540Z,101413.75
2022-08-27T16:49:55.125Z,101410.88
2022-08-27T16:52:23.569Z,101411.44
2022-08-27T16:54:51.329Z,101411.91
2022-08-27T16:57:18.006Z,101411.03
2022-08-27T16:59:44.719Z,101416.94
2022-08-27T17:02:22.285Z,101407.75
2022-08-27T17:05:01.402Z,101404.56
2022-08-27T17:07:40.358Z,101409.19
2022-08-27T17:10:13.227Z,101412.03
2022-08-27T17:12:40.736Z,101413.31
2022-08-27T17:15:08.164Z,101419.09
2022-08-27T17:17:34.865Z,101415.88
2022-08-27T17:20:02.621Z,101423.00
2022-08-27T17:22:29.312Z,101423.47
2022-08-27T17:24:55.836Z,101414.94
2022-08-27T17:27:22.402Z,101430.72
2022-08-27T17:29:49.058Z,101428.19
2022-08-27T17:32:16.163Z,101430.53
2022-08-27T17:34:42.830Z,101429.84
2022-08-27T17:37:09.551Z,101431.78
2022-08-27T17:39:36.257Z,101435.34
2022-08-27T17:42:05.201Z,101438.78
2022-08-27T17:44:35.763Z,101449.91
2022-08-27T17:47:05.194Z,101448.59
2022-08-27T17:49:32.389Z,101444.78
2022-08-27T17:52:02.342Z,101437.97
2022-08-27T17:54:41.992Z,101442.44
2022-08-27T17:57:29.499Z,101455.22
2022-08-27T18:00:08.633Z,101450.38
2022-08-27T18:02:38.802Z,101454.88
2022-08-27T18:05:07.254Z,101460.00
2022-08-27T18:07:39.131Z,101465.97
2022-08-27T18:10:07.243Z,101471.69
2022-08-27T18:12:34.022Z,101478.78
2022-08-27T18:15:09.950Z,101477.72
2022-08-27T18:17:42.525Z,101483.66
2022-08-27T18:20:13.606Z,101479.16
2022-08-27T18:22:41.995Z,101488.22
2022-08-27T18:25:16.842Z,101496.47
2022-08-27T18:27:45.291Z,101499.81
2022-08-27T18:30:12.724Z,101502.03
2022-08-27T18:32:41.074Z,101505.13
2022-08-27T18:35:21.689Z,101511.47
2022-08-27T18:37:48.571Z,101515.16
2022-08-27T18:40:17.389Z,101512.56
2022-08-27T18:42:45.242Z,101512.63
2022-08-27T18:45:16.528Z,101513.84
2022-08-27T18:47:43.517Z,101517.13
2022-08-27T18:50:17.570Z,101520.59
2022-08-27T18:52:46.511Z,101531.78
2022-08-27T18:55:16.280Z,101532.22
2022-08-27T18:57:43.115Z,101531.03
2022-08-27T19:00:12.061Z,101538.16
2022-08-27T19:02:40.082Z,101537.78
2022-08-27T19:05:13.749Z,101534.59
2022-08-27T19:07:40.363Z,101545.56
2022-08-27T19:10:07.877Z,101542.72
2022-08-27T19:12:34.575Z,101547.41
2022-08-27T19:15:04.188Z,101550.84
2022-08-27T19:17:34.220Z,101550.66
2022-08-27T19:20:02.598Z,101553.47
2022-08-27T19:22:31.876Z,101555.72
2022-08-27T19:24:59.604Z,101559.19
2022-08-27T19:27:28.931Z,101563.22
2022-08-27T19:29:56.063Z,101558.16
2022-08-27T19:32:22.780Z,101560.00
2022-08-27T19:34:50.303Z,101558.38
2022-08-27T19:37:20.905Z,101553.91
2022-08-27T19:39:48.703Z,101564.22
2022-08-27T19:42:15.521Z,101563.63
2022-08-27T19:44:42.488Z,101569.31
2022-08-27T19:47:11.011Z,101570.69
2022-08-27T19:49:37.884Z,101575.78
2022-08-27T19:52:08.331Z,101572.53
2022-08-27T19:54:40.081Z,101569.13
2022-08-27T19:57:18.573Z,101576.59
2022-08-27T19:59:45.282Z,101579.59
2022-08-27T20:02:12.626Z,101577.41
2022-08-27T20:04:56.054Z,101571.31
2022-08-27T20:07:26.621Z,101573.75
2022-08-27T20:09:53.192Z,101582.03
2022-08-27T20:12:21.862Z,101574.97
2022-08-27T20:14:50.050Z,101576.59
2022-08-27T20:17:18.674Z,101571.31
2022-08-27T20:19:45.385Z,101570.50
2022-08-27T20:22:13.253Z,101570.47
2022-08-27T20:24:42.339Z,101575.75
2022-08-27T20:27:08.993Z,101572.09
2022-08-27T20:29:36.011Z,101570.91
2022-08-27T20:32:04.353Z,101580.16
2022-08-27T20:34:32.616Z,101574.13
2022-08-27T20:37:02.368Z,101587.66
2022-08-27T20:39:29.036Z,101583.00
2022-08-27T20:41:55.645Z,101580.97
2022-08-27T20:44:22.632Z,101585.16
2022-08-27T20:46:52.203Z,101578.88
2022-08-27T20:49:18.993Z,101582.88
2022-08-27T20:51:51.242Z,101593.00
2022-08-27T20:54:29.171Z,101591.78
2022-08-27T20:56:55.832Z,101592.53
2022-08-27T20:59:40.852Z,101594.75
2022-08-27T21:02:10.462Z,101598.78
2022-08-27T21:04:42.939Z,101602.19
2022-08-27T21:07:09.587Z,101600.13
2022-08-27T21:09:36.250Z,101599.31
2022-08-27T21:12:22.585Z,101608.00
2022-08-27T21:14:50.085Z,101605.75
2022-08-27T21:17:21.510Z,101608.78
2022-08-27T21:19:48.044Z,101609.34
2022-08-27T21:22:15.875Z,101602.84
2022-08-27T21:24:42.422Z,101601.00
2022-08-27T21:27:09.066Z,101613.69
2022-08-27T21:29:36.843Z,101610.66
2022-08-27T21:32:04.931Z,101614.84
2022-08-27T21:34:31.557Z,101626.09
2022-08-27T21:36:59.144Z,101623.22
2022-08-27T21:39:25.679Z,101625.59
2022-08-27T21:41:52.674Z,101631.59
2022-08-27T21:44:19.252Z,101630.16
2022-08-27T21:46:45.874Z,101631.56
2022-08-27T21:49:12.603Z,101624.69
2022-08-27T21:51:39.242Z,101630.31
2022-08-27T21:54:05.866Z,101626.88
2022-08-27T21:56:33.135Z,101622.38
2022-08-27T21:58:59.784Z,101615.72
2022-08-27T22:01:26.375Z,101619.69
2022-08-27T22:03:53.064Z,101621.91
2022-08-27T22:06:19.910Z,101617.38
2022-08-27T22:08:46.540Z,101623.84
2022-08-27T22:11:13.273Z,101627.03
2022-08-27T22:13:40.407Z,101628.22
2022-08-27T22:16:07.530Z,101625.13
2022-08-27T22:18:34.913Z,101619.63
2022-08-27T22:21:02.675Z,101620.66
2022-08-27T22:23:29.360Z,101619.41
2022-08-27T22:25:55.914Z,101622.94
2022-08-27T22:28:23.279Z,101621.72
2022-08-27T22:30:49.950Z,101623.66
2022-08-27T22:33:17.569Z,101616.81
2022-08-27T22:35:44.579Z,101622.00
2022-08-27T22:38:11.493Z,101617.94
2022-08-27T22:40:39.381Z,101624.97
2022-08-27T22:43:06.058Z,101616.50
2022-08-27T22:45:34.545Z,101621.94
2022-08-27T22:48:01.221Z,101621.63
2022-08-27T22:50:29.832Z,101624.00
2022-08-27T22:52:56.464Z,101622.13
2022-08-27T22:55:41.693Z,101630.94
2022-08-27T22:58:08.321Z,101627.91
2022-08-27T23:00:37.486Z,101629.25
2022-08-27T23:03:07.031Z,101626.00
2022-08-27T23:05:41.723Z,101632.25
2022-08-27T23:08:11.162Z,101634.75
2022-08-27T23:10:38.618Z,101633.16
2022-08-27T23:13:05.560Z,101631.69
2022-08-27T23:15:32.265Z,101627.81
2022-08-27T23:18:00.552Z,101627.19
2022-08-27T23:20:28.393Z,101637.41
2022-08-27T23:22:55.593Z,101630.72
2022-08-27T23:25:43.688Z,101633.88
2022-08-27T23:28:14.831Z,101630.97
2022-08-27T23:30:43.332Z,101628.72
2022-08-27T23:33:10.167Z,101622.22
2022-08-27T23:35:36.815Z,101625.38
2022-08-27T23:38:04.339Z,101624.75
2022-08-27T23:40:31.128Z,101630.97
2022-08-27T23:42:59.486Z,101620.06
2022-08-27T23:45:27.089Z,101626.25
2022-08-27T23:47:53.950Z,101628.44
2022-08-27T23:50:21.491Z,101632.56
2022-08-27T23:52:53.714Z,101630.97
2022-08-27T23:55:20.610Z,101632.94
2022-08-27T23:57:47.344Z,101629.66
